Time;durP1;ratioP1;P1;durP2;ratioP2;P2;SDS_P1;SDS_P2;PMS_P1;PMS_P2;Temp;Humidity;BMP_temperature;BMP_pressure;BME280_temperature;BME280_humidity;BME280_pressure;Samples;Min_cycle;Max_cycle;Signal;HPM_P1;HPM_P2
2023/12/18 00:00:58;;;;;;;14.60;5.53;;;;;;;;;;4899361;29;20024;-75
2023/12/18 00:03:25;;;;;;;14.75;5.85;;;;;;;;;;4897186;29;20047;-75
2023/12/18 00:05:51;;;;;;;15.07;5.25;;;;;;;;;;4897606;29;20039;-75
2023/12/18 00:08:17;;;;;;;17.00;5.82;;;;;;;;;;4900519;29;20107;-75
2023/12/18 00:10:43;;;;;;;15.32;6.30;;;;;;;;;;4883182;29;20035;-75
2023/12/18 00:13:11;;;;;;;18.15;6.40;;;;;;;;;;4899355;29;20046;-75
2023/12/18 00:15:37;;;;;;;14.63;5.07;;;;;;;;;;4901582;29;20035;-75
2023/12/18 00:18:03;;;;;;;15.60;5.13;;;;;;;;;;4898020;29;20039;-75
2023/12/18 00:20:29;;;;;;;17.13;8.10;;;;;;;;;;4901933;29;20067;-75
2023/12/18 00:22:55;;;;;;;15.40;5.53;;;;;;;;;;4899708;29;20829;-75
2023/12/18 00:25:21;;;;;;;17.00;5.57;;;;;;;;;;4900023;29;20043;-75
2023/12/18 00:27:47;;;;;;;16.58;5.95;;;;;;;;;;4902852;29;20124;-75
2023/12/18 00:30:13;;;;;;;15.30;5.18;;;;;;;;;;4899347;29;20078;-75
2023/12/18 00:32:41;;;;;;;13.63;4.60;;;;;;;;;;4899300;29;20126;-75
2023/12/18 00:35:07;;;;;;;15.57;5.25;;;;;;;;;;4900106;29;20027;-75
2023/12/18 00:37:33;;;;;;;16.08;5.85;;;;;;;;;;4899143;29;20129;-74
2023/12/18 00:39:59;;;;;;;;;;;;;;;;;;4901988;29;20032;-74
2023/12/18 00:42:25;;;;;;;15.60;5.40;;;;;;;;;;4897008;29;19929;-76
2023/12/18 00:44:51;;;;;;;18.40;6.10;;;;;;;;;;4899284;29;20063;-77
2023/12/18 00:47:18;;;;;;;16.10;5.35;;;;;;;;;;4877739;29;20564;-76
2023/12/18 00:49:44;;;;;;;14.52;5.15;;;;;;;;;;4900673;29;20125;-76
2023/12/18 00:52:10;;;;;;;;;;;;;;;;;;4899065;29;20023;-74
2023/12/18 00:54:36;;;;;;;20.83;6.63;;;;;;;;;;4898671;29;20483;-73
2023/12/18 00:57:02;;;;;;;17.23;5.63;;;;;;;;;;4897734;29;20070;-74
2023/12/18 00:59:28;;;;;;;14.23;4.60;;;;;;;;;;4897278;29;20027;-74
2023/12/18 01:01:57;;;;;;;17.10;5.60;;;;;;;;;;4897250;29;20046;-76
2023/12/18 01:04:23;;;;;;;15.38;5.43;;;;;;;;;;4893895;28;20095;-74
2023/12/18 01:06:49;;;;;;;12.85;4.38;;;;;;;;;;4902897;29;20046;-75
2023/12/18 01:09:16;;;;;;;17.88;5.10;;;;;;;;;;4896221;29;20529;-74
2023/12/18 01:11:42;;;;;;;18.33;5.32;;;;;;;;;;4900019;29;20036;-74
2023/12/18 01:14:09;;;;;;;14.15;4.85;;;;;;;;;;4898758;29;20115;-74
2023/12/18 01:16:35;;;;;;;13.15;4.50;;;;;;;;;;4883678;29;20063;-74
2023/12/18 01:19:02;;;;;;;17.17;5.53;;;;;;;;;;4895900;29;20126;-75
2023/12/18 01:21:29;;;;;;;20.33;5.72;;;;;;;;;;4901333;29;20263;-74
2023/12/18 01:23:55;;;;;;;13.68;4.75;;;;;;;;;;4899574;29;20036;-76
2023/12/18 01:26:21;;;;;;;15.38;5.28;;;;;;;;;;4878414;29;23181;-74
2023/12/18 01:28:47;;;;;;;17.85;5.80;;;;;;;;;;4895907;29;20087;-75
2023/12/18 01:31:23;;;;;;;18.10;5.60;;;;;;;;;;4881484;29;20039;-76
2023/12/18 01:33:50;;;;;;;14.48;5.30;;;;;;;;;;4899132;29;20036;-76
2023/12/18 01:36:16;;;;;;;;;;;;;;;;;;4867074;29;20039;-75
2023/12/18 01:38:43;;;;;;;16.02;5.43;;;;;;;;;;4899604;29;20677;-76
2023/12/18 01:41:09;;;;;;;15.50;4.93;;;;;;;;;;4894408;29;20489;-76
2023/12/18 01:43:37;;;;;;;14.10;4.78;;;;;;;;;;4899566;29;20040;-75
2023/12/18 01:46:03;;;;;;;15.55;5.75;;;;;;;;;;4875359;29;20028;-75
2023/12/18 01:48:29;;;;;;;;;;;;;;;;;;4895904;29;20032;-75
2023/12/18 01:50:56;;;;;;;11.30;4.28;;;;;;;;;;4904904;29;19914;-75
2023/12/18 01:53:23;;;;;;;16.23;5.03;;;;;;;;;;4882076;29;20101;-75
2023/12/18 01:55:50;;;;;;;14.55;5.28;;;;;;;;;;4905030;29;20094;-75
2023/12/18 01:58:16;;;;;;;14.80;4.72;;;;;;;;;;4898261;29;20134;-75
2023/12/18 02:00:42;;;;;;;;;;;;;;;;;;4887688;29;20043;-75
2023/12/18 02:03:10;;;;;;;13.68;4.15;;;;;;;;;;4900531;29;20043;-75
2023/12/18 02:05:37;;;;;;;13.07;4.47;;;;;;;;;;4904636;29;20027;-79
2023/12/18 02:08:04;;;;;;;13.43;4.20;;;;;;;;;;4899332;29;20032;-75
2023/12/18 02:10:30;;;;;;;12.48;4.00;;;;;;;;;;4903712;29;20590;-75
2023/12/18 02:12:58;;;;;;;15.40;4.32;;;;;;;;;;4902471;29;20582;-75
2023/12/18 02:15:24;;;;;;;14.50;4.82;;;;;;;;;;4907420;29;20036;-75
2023/12/18 02:17:51;;;;;;;16.10;4.95;;;;;;;;;;4892590;29;20048;-75
2023/12/18 02:20:17;;;;;;;11.95;4.15;;;;;;;;;;4904070;29;20110;-75
2023/12/18 02:22:47;;;;;;;12.63;4.20;;;;;;;;;;4876858;29;20040;-75
2023/12/18 02:25:16;;;;;;;13.70;4.50;;;;;;;;;;4872670;29;20117;-74
2023/12/18 02:27:44;;;;;;;11.55;4.18;;;;;;;;;;4872898;29;20047;-74
2023/12/18 02:30:19;;;;;;;16.05;4.95;;;;;;;;;;4869709;29;20446;-74
2023/12/18 02:32:45;;;;;;;12.65;4.53;;;;;;;;;;4875691;29;20028;-75
2023/12/18 02:35:26;;;;;;;13.25;4.28;;;;;;;;;;4875252;29;20794;-74
2023/12/18 02:37:52;;;;;;;;;;;;;;;;;;4859980;29;20158;-74
2023/12/18 02:40:18;;;;;;;16.55;4.32;;;;;;;;;;4869658;29;20473;-75
2023/12/18 02:42:45;;;;;;;13.48;4.07;;;;;;;;;;4876045;29;20075;-76
2023/12/18 02:45:11;;;;;;;11.80;3.88;;;;;;;;;;4870635;29;20027;-75
2023/12/18 02:47:37;;;;;;;11.88;4.03;;;;;;;;;;4877197;29;20379;-76
2023/12/18 02:50:06;;;;;;;12.23;4.03;;;;;;;;;;4872484;29;20040;-76
2023/12/18 02:52:33;;;;;;;11.32;3.30;;;;;;;;;;4871982;29;20055;-75
2023/12/18 02:55:00;;;;;;;12.13;3.70;;;;;;;;;;4873229;29;20035;-75
2023/12/18 02:57:28;;;;;;;12.50;3.78;;;;;;;;;;4875365;29;20028;-76
2023/12/18 02:59:54;;;;;;;10.18;3.40;;;;;;;;;;4905356;29;20419;-75
2023/12/18 03:02:21;;;;;;;11.63;3.20;;;;;;;;;;4886964;29;20044;-75
2023/12/18 03:04:48;;;;;;;15.38;4.10;;;;;;;;;;4907462;29;20086;-73
2023/12/18 03:07:14;;;;;;;12.55;3.53;;;;;;;;;;4904581;29;20561;-74
2023/12/18 03:09:40;;;;;;;;;;;;;;;;;;4891800;29;20042;-74
2023/12/18 03:12:07;;;;;;;12.60;3.80;;;;;;;;;;4906342;29;19915;-74
2023/12/18 03:14:34;;;;;;;12.52;4.00;;;;;;;;;;4904445;29;20031;-74
2023/12/18 03:17:00;;;;;;;10.82;4.00;;;;;;;;;;4908013;29;20390;-74
2023/12/18 03:19:27;;;;;;;9.65;3.53;;;;;;;;;;4905757;29;20038;-74
2023/12/18 03:21:54;;;;;;;10.60;3.70;;;;;;;;;;4885635;29;20915;-73
2023/12/18 03:24:21;;;;;;;12.90;3.58;;;;;;;;;;4905875;29;20624;-74
2023/12/18 03:26:48;;;;;;;;;;;;;;;;;;4907456;29;20036;-76
2023/12/18 03:29:14;;;;;;;11.07;3.70;;;;;;;;;;4903702;29;19925;-76
2023/12/18 03:31:40;;;;;;;11.05;2.92;;;;;;;;;;4907582;29;20044;-75
2023/12/18 03:34:06;;;;;;;10.15;3.20;;;;;;;;;;4888971;29;20090;-74
2023/12/18 03:36:32;;;;;;;11.88;3.97;;;;;;;;;;4890285;29;20118;-75
2023/12/18 03:38:59;;;;;;;10.85;3.47;;;;;;;;;;4874499;29;20036;-76
2023/12/18 03:41:25;;;;;;;11.27;3.53;;;;;;;;;;4902031;29;20507;-73
2023/12/18 03:43:53;;;;;;;12.77;3.95;;;;;;;;;;4889709;29;20084;-73
2023/12/18 03:46:19;;;;;;;12.63;3.80;;;;;;;;;;4903995;29;20031;-75
2023/12/18 03:48:45;;;;;;;14.02;4.38;;;;;;;;;;4908198;29;20113;-75
2023/12/18 03:51:11;;;;;;;9.95;3.10;;;;;;;;;;4907016;29;20027;-75
2023/12/18 03:53:37;;;;;;;;;;;;;;;;;;4908245;29;20122;-75
2023/12/18 03:56:04;;;;;;;14.88;4.63;;;;;;;;;;4900172;29;20419;-75
2023/12/18 03:58:31;;;;;;;13.88;4.53;;;;;;;;;;4907319;29;20044;-78
2023/12/18 04:00:58;;;;;;;13.38;3.78;;;;;;;;;;4909168;29;20380;-75
2023/12/18 04:03:24;;;;;;;14.05;4.70;;;;;;;;;;4903599;29;20042;-74
2023/12/18 04:05:50;;;;;;;14.32;4.47;;;;;;;;;;4908429;29;20048;-75
2023/12/18 04:08:16;;;;;;;14.70;4.40;;;;;;;;;;4902352;29;20023;-75
2023/12/18 04:10:43;;;;;;;15.40;4.25;;;;;;;;;;4907349;29;20036;-75
2023/12/18 04:13:09;;;;;;;14.30;4.10;;;;;;;;;;4883291;29;20031;-75
2023/12/18 04:15:35;;;;;;;13.90;4.10;;;;;;;;;;4875684;29;20086;-75
2023/12/18 04:18:02;;;;;;;13.68;4.28;;;;;;;;;;4904997;29;20159;-76
2023/12/18 04:20:28;;;;;;;12.23;3.15;;;;;;;;;;4903534;29;20044;-75
2023/12/18 04:22:54;;;;;;;10.27;3.30;;;;;;;;;;4905577;29;20043;-75
2023/12/18 04:25:22;;;;;;;15.50;3.90;;;;;;;;;;4903541;29;20794;-75
2023/12/18 04:27:48;;;;;;;12.35;4.07;;;;;;;;;;4908685;29;20475;-75
2023/12/18 04:30:15;;;;;;;11.23;2.90;;;;;;;;;;4902738;29;20036;-75
2023/12/18 04:32:42;;;;;;;14.52;3.72;;;;;;;;;;4906513;29;20036;-75
2023/12/18 04:35:09;;;;;;;13.98;3.53;;;;;;;;;;4899107;29;20125;-75
2023/12/18 04:37:35;;;;;;;13.88;3.42;;;;;;;;;;4904323;29;20540;-75
2023/12/18 04:40:03;;;;;;;12.80;3.05;;;;;;;;;;4905901;29;20039;-75
2023/12/18 04:42:29;;;;;;;12.65;3.05;;;;;;;;;;4906280;29;20040;-75
2023/12/18 04:44:55;;;;;;;;;;;;;;;;;;4906661;29;20126;-74
2023/12/18 04:47:23;;;;;;;13.75;3.00;;;;;;;;;;4902207;29;20688;-74
2023/12/18 04:49:49;;;;;;;12.15;2.70;;;;;;;;;;4905233;29;20035;-75
2023/12/18 04:52:15;;;;;;;12.63;3.25;;;;;;;;;;4900690;29;20039;-74
2023/12/18 04:54:41;;;;;;;10.30;2.83;;;;;;;;;;4904781;29;20046;-75
2023/12/18 04:57:07;;;;;;;11.55;2.42;;;;;;;;;;4903993;29;20031;-75
2023/12/18 04:59:33;;;;;;;10.07;2.35;;;;;;;;;;4891630;29;20035;-75
2023/12/18 05:01:59;;;;;;;11.63;2.80;;;;;;;;;;4904326;29;20030;-75
2023/12/18 05:04:25;;;;;;;13.13;2.75;;;;;;;;;;4902463;29;20050;-75
2023/12/18 05:06:53;;;;;;;11.25;2.47;;;;;;;;;;4906658;29;20031;-76
2023/12/18 05:09:19;;;;;;;13.82;2.72;;;;;;;;;;4905253;29;20055;-74
2023/12/18 05:11:47;;;;;;;11.05;2.47;;;;;;;;;;4906931;29;20095;-75
2023/12/18 05:14:13;;;;;;;13.10;2.90;;;;;;;;;;4901409;29;20032;-75
2023/12/18 05:16:40;;;;;;;14.13;2.70;;;;;;;;;;4906511;29;20167;-75
2023/12/18 05:19:08;;;;;;;13.40;2.42;;;;;;;;;;4901580;29;20055;-75
2023/12/18 05:21:34;;;;;;;13.05;3.00;;;;;;;;;;4902222;29;20451;-74
2023/12/18 05:24:00;;;;;;;10.68;2.60;;;;;;;;;;4905806;29;20081;-75
2023/12/18 05:26:26;;;;;;;12.07;3.00;;;;;;;;;;4904883;29;20043;-75
2023/12/18 05:28:53;;;;;;;9.95;2.50;;;;;;;;;;4907848;29;20035;-74
2023/12/18 05:31:20;;;;;;;13.65;3.35;;;;;;;;;;4902117;29;20150;-75
2023/12/18 05:33:46;;;;;;;12.85;3.30;;;;;;;;;;4904389;29;20055;-75
2023/12/18 05:36:12;;;;;;;10.57;2.55;;;;;;;;;;4901463;29;20038;-75
2023/12/18 05:38:38;;;;;;;12.20;2.78;;;;;;;;;;4888177;29;20110;-75
2023/12/18 05:41:04;;;;;;;12.43;2.78;;;;;;;;;;4882908;29;20075;-75
2023/12/18 05:43:30;;;;;;;13.23;3.50;;;;;;;;;;4888322;29;20114;-75
2023/12/18 05:45:57;;;;;;;13.38;3.10;;;;;;;;;;4882718;29;20032;-75
2023/12/18 05:48:23;;;;;;;11.93;2.63;;;;;;;;;;4885694;29;20029;-75
2023/12/18 05:50:49;;;;;;;12.82;3.15;;;;;;;;;;4887440;29;20044;-76
2023/12/18 05:53:15;;;;;;;16.77;3.50;;;;;;;;;;4889967;29;20024;-75
2023/12/18 05:55:41;;;;;;;12.40;3.33;;;;;;;;;;4891200;29;20070;-76
2023/12/18 05:58:08;;;;;;;15.63;3.00;;;;;;;;;;4899892;29;20028;-75
2023/12/18 06:00:36;;;;;;;14.30;3.75;;;;;;;;;;4888533;29;20041;-75
2023/12/18 06:03:02;;;;;;;12.93;2.90;;;;;;;;;;4888041;29;20034;-74
2023/12/18 06:05:29;;;;;;;11.20;3.20;;;;;;;;;;4892616;29;20051;-75
2023/12/18 06:07:56;;;;;;;12.18;3.20;;;;;;;;;;4891413;29;20123;-74
2023/12/18 06:10:22;;;;;;;12.77;3.20;;;;;;;;;;4900711;29;20041;-74
2023/12/18 06:12:51;;;;;;;13.18;3.30;;;;;;;;;;4890667;29;20024;-74
2023/12/18 06:15:17;;;;;;;12.30;3.25;;;;;;;;;;4886091;29;20740;-76
2023/12/18 06:17:43;;;;;;;14.40;3.20;;;;;;;;;;4891264;29;20032;-73
2023/12/18 06:20:09;;;;;;;11.05;3.08;;;;;;;;;;4885142;29;20119;-76
2023/12/18 06:22:35;;;;;;;12.65;2.95;;;;;;;;;;4906769;29;20078;-74
2023/12/18 06:25:03;;;;;;;12.93;3.33;;;;;;;;;;4887699;29;20602;-76
2023/12/18 06:27:29;;;;;;;10.43;2.70;;;;;;;;;;4889406;29;20032;-75
2023/12/18 06:29:58;;;;;;;11.30;3.00;;;;;;;;;;4889457;29;20554;-75
2023/12/18 06:32:24;;;;;;;13.43;3.70;;;;;;;;;;4888435;29;20055;-75
2023/12/18 06:34:50;;;;;;;14.00;3.28;;;;;;;;;;4890785;29;20135;-75
2023/12/18 06:37:16;;;;;;;;;;;;;;;;;;4886806;29;20056;-75
2023/12/18 06:39:46;;;;;;;16.48;3.60;;;;;;;;;;4891645;29;20010;-75
2023/12/18 06:42:13;;;;;;;17.92;5.25;;;;;;;;;;4886230;29;20055;-75
2023/12/18 06:44:40;;;;;;;14.60;5.82;;;;;;;;;;4910012;29;20062;-76
2023/12/18 06:47:08;;;;;;;15.43;4.50;;;;;;;;;;4906151;29;20130;-75
2023/12/18 06:49:34;;;;;;;15.70;3.90;;;;;;;;;;4909946;29;20039;-74
2023/12/18 06:52:02;;;;;;;13.65;4.85;;;;;;;;;;4889434;29;20039;-74
2023/12/18 06:54:28;;;;;;;18.92;7.15;;;;;;;;;;4907581;29;20047;-75
2023/12/18 06:56:54;;;;;;;15.70;7.65;;;;;;;;;;4906873;29;20032;-75
2023/12/18 06:59:22;;;;;;;17.00;7.22;;;;;;;;;;4902670;29;20142;-74
2023/12/18 07:01:49;;;;;;;14.55;6.90;;;;;;;;;;4910314;29;20106;-75
2023/12/18 07:04:17;;;;;;;17.17;5.97;;;;;;;;;;4904902;29;20052;-74
2023/12/18 07:06:43;;;;;;;13.10;5.50;;;;;;;;;;4909864;29;20491;-75
2023/12/18 07:09:09;;;;;;;15.30;4.28;;;;;;;;;;4904537;29;20047;-74
2023/12/18 07:11:36;;;;;;;13.07;4.95;;;;;;;;;;4907869;29;20020;-74
2023/12/18 07:14:03;;;;;;;15.13;4.72;;;;;;;;;;4904427;29;20035;-74
2023/12/18 07:16:29;;;;;;;15.32;4.38;;;;;;;;;;4909895;29;20023;-74
2023/12/18 07:18:55;;;;;;;20.45;5.32;;;;;;;;;;4906459;29;20504;-74
2023/12/18 07:21:22;;;;;;;20.83;5.93;;;;;;;;;;4903546;29;20028;-72
2023/12/18 07:23:48;;;;;;;20.20;5.50;;;;;;;;;;4908019;29;20585;-72
2023/12/18 07:26:14;;;;;;;25.02;5.57;;;;;;;;;;4905007;29;20028;-75
2023/12/18 07:28:40;;;;;;;32.42;5.90;;;;;;;;;;4910030;29;20067;-75
2023/12/18 07:31:07;;;;;;;26.30;6.60;;;;;;;;;;4905459;29;20035;-74
2023/12/18 07:33:33;;;;;;;19.40;4.88;;;;;;;;;;4908841;29;20039;-74
2023/12/18 07:35:59;;;;;;;13.57;4.57;;;;;;;;;;4910868;29;20052;-75
2023/12/18 07:38:26;;;;;;;21.08;7.13;;;;;;;;;;4904070;29;20048;-74
2023/12/18 07:40:52;;;;;;;13.60;4.85;;;;;;;;;;4907433;29;20052;-73
2023/12/18 07:43:21;;;;;;;13.50;4.68;;;;;;;;;;4905673;29;20047;-74
2023/12/18 07:45:48;;;;;;;15.25;5.88;;;;;;;;;;4906764;29;20052;-73
2023/12/18 07:48:14;;;;;;;19.40;5.75;;;;;;;;;;4901628;29;20044;-72
2023/12/18 07:50:42;;;;;;;19.92;6.97;;;;;;;;;;4909071;29;20218;-73
2023/12/18 07:53:08;;;;;;;21.05;7.85;;;;;;;;;;4906152;29;20111;-75
2023/12/18 07:55:34;;;;;;;34.58;8.88;;;;;;;;;;4905719;29;20051;-73
2023/12/18 07:58:00;;;;;;;24.40;8.60;;;;;;;;;;4906101;29;20067;-72
2023/12/18 08:00:28;;;;;;;31.55;9.45;;;;;;;;;;4903834;29;20035;-72
2023/12/18 08:02:54;;;;;;;67.22;12.25;;;;;;;;;;4905175;29;20051;-73
2023/12/18 08:05:20;;;;;;;48.03;10.80;;;;;;;;;;4903286;29;20043;-74
2023/12/18 08:07:47;;;;;;;72.15;12.63;;;;;;;;;;4903140;29;20023;-74
2023/12/18 08:10:13;;;;;;;80.03;13.68;;;;;;;;;;4898882;29;20072;-73
2023/12/18 08:12:39;;;;;;;119.40;17.05;;;;;;;;;;4900580;29;20059;-72
2023/12/18 08:15:06;;;;;;;54.53;12.00;;;;;;;;;;4902015;29;20054;-74
2023/12/18 08:17:39;;;;;;;42.63;10.05;;;;;;;;;;4905849;29;20043;-73
2023/12/18 08:20:07;;;;;;;27.25;9.10;;;;;;;;;;4905918;29;20056;-75
2023/12/18 08:22:34;;;;;;;29.38;9.15;;;;;;;;;;4889548;29;20035;-75
2023/12/18 08:25:01;;;;;;;62.30;12.80;;;;;;;;;;4904803;29;20931;-75
2023/12/18 08:27:32;;;;;;;39.22;11.27;;;;;;;;;;4909512;29;20661;-76
2023/12/18 08:29:58;;;;;;;33.92;8.93;;;;;;;;;;4905279;29;20036;-75
2023/12/18 08:32:24;;;;;;;19.95;8.02;;;;;;;;;;4902901;29;20028;-76
2023/12/18 08:34:51;;;;;;;;;;;;;;;;;;4904131;29;20050;-76
2023/12/18 08:37:19;;;;;;;21.30;7.60;;;;;;;;;;4902686;29;19914;-76
2023/12/18 08:39:45;;;;;;;27.17;7.68;;;;;;;;;;4907831;29;20023;-76
2023/12/18 08:42:11;;;;;;;;;;;;;;;;;;4902616;29;20378;-77
2023/12/18 08:44:37;;;;;;;22.33;5.90;;;;;;;;;;4908510;29;20770;-75
2023/12/18 08:47:03;;;;;;;15.75;4.95;;;;;;;;;;4906828;29;20060;-75
2023/12/18 08:49:30;;;;;;;14.88;4.60;;;;;;;;;;4885389;29;20039;-76
2023/12/18 08:51:56;;;;;;;14.30;3.75;;;;;;;;;;4906862;29;20027;-75
2023/12/18 08:54:23;;;;;;;15.60;3.67;;;;;;;;;;4887448;29;20035;-75
2023/12/18 08:56:51;;;;;;;9.82;3.17;;;;;;;;;;4908947;29;20121;-75
2023/12/18 08:59:18;;;;;;;11.68;3.28;;;;;;;;;;4901628;29;20032;-74
2023/12/18 09:01:44;;;;;;;13.27;3.85;;;;;;;;;;4908260;29;20036;-75
2023/12/18 09:04:10;;;;;;;9.98;3.47;;;;;;;;;;4903887;29;20036;-75
2023/12/18 09:06:37;;;;;;;9.32;2.78;;;;;;;;;;4904100;29;20054;-74
2023/12/18 09:09:03;;;;;;;12.02;2.80;;;;;;;;;;4901605;29;20063;-74
2023/12/18 09:11:33;;;;;;;9.63;3.00;;;;;;;;;;4906711;29;20036;-75
2023/12/18 09:14:00;;;;;;;9.88;3.05;;;;;;;;;;4906498;29;20039;-74
2023/12/18 09:16:26;;;;;;;10.98;3.08;;;;;;;;;;4889715;29;20035;-74
2023/12/18 09:18:52;;;;;;;10.55;3.25;;;;;;;;;;4906551;29;20035;-75
2023/12/18 09:21:19;;;;;;;10.55;3.00;;;;;;;;;;4903289;29;20035;-74
2023/12/18 09:23:45;;;;;;;10.00;2.45;;;;;;;;;;4890458;29;20043;-74
2023/12/18 09:26:14;;;;;;;10.40;2.90;;;;;;;;;;4902185;29;20036;-74
2023/12/18 09:28:41;;;;;;;9.05;2.75;;;;;;;;;;4902157;29;20058;-75
2023/12/18 09:31:07;;;;;;;10.32;2.90;;;;;;;;;;4900292;29;20102;-75
2023/12/18 09:33:34;;;;;;;13.15;2.85;;;;;;;;;;4904547;29;20124;-75
2023/12/18 09:36:00;;;;;;;10.30;2.90;;;;;;;;;;4905282;29;20031;-75
2023/12/18 09:38:27;;;;;;;8.88;3.00;;;;;;;;;;4903898;29;20186;-74
2023/12/18 09:40:53;;;;;;;9.50;3.05;;;;;;;;;;4905897;29;20047;-74
2023/12/18 09:43:21;;;;;;;12.88;3.50;;;;;;;;;;4886109;29;20637;-75
2023/12/18 09:45:48;;;;;;;12.32;3.35;;;;;;;;;;4903300;29;20020;-75
2023/12/18 09:48:16;;;;;;;11.48;3.58;;;;;;;;;;4903668;29;20040;-74
2023/12/18 09:50:44;;;;;;;19.40;4.53;;;;;;;;;;4905584;29;20505;-74
2023/12/18 09:53:12;;;;;;;12.88;3.65;;;;;;;;;;4887388;29;20031;-74
2023/12/18 09:55:41;;;;;;;11.38;3.25;;;;;;;;;;4902642;29;20375;-75
2023/12/18 09:58:08;;;;;;;10.38;2.92;;;;;;;;;;4902704;29;20016;-74
2023/12/18 10:00:35;;;;;;;12.82;3.00;;;;;;;;;;4903441;29;20109;-75
2023/12/18 10:03:02;;;;;;;11.00;2.30;;;;;;;;;;4888488;29;20036;-75
2023/12/18 10:05:30;;;;;;;10.68;2.95;;;;;;;;;;4902595;29;20213;-74
2023/12/18 10:07:59;;;;;;;9.18;2.03;;;;;;;;;;4905763;29;20042;-75
2023/12/18 10:10:25;;;;;;;10.77;2.47;;;;;;;;;;4901299;29;20064;-74
2023/12/18 10:12:53;;;;;;;9.25;2.50;;;;;;;;;;4908655;29;20042;-74
2023/12/18 10:15:19;;;;;;;7.97;2.20;;;;;;;;;;4899592;29;20038;-76
2023/12/18 10:17:46;;;;;;;12.00;2.75;;;;;;;;;;4906179;29;20043;-74
2023/12/18 10:20:15;;;;;;;13.32;3.05;;;;;;;;;;4883464;29;20138;-77
2023/12/18 10:22:41;;;;;;;12.07;2.70;;;;;;;;;;4903520;29;20579;-74
2023/12/18 10:25:09;;;;;;;12.52;2.70;;;;;;;;;;4901712;29;20040;-74
2023/12/18 10:27:38;;;;;;;9.75;2.80;;;;;;;;;;4905546;29;20055;-74
2023/12/18 10:30:08;;;;;;;9.98;3.03;;;;;;;;;;4903542;29;20059;-75
2023/12/18 10:32:37;;;;;;;12.32;2.53;;;;;;;;;;4885595;29;20642;-74
2023/12/18 10:35:06;;;;;;;9.77;2.65;;;;;;;;;;4900762;29;20019;-75
2023/12/18 10:37:33;;;;;;;9.70;2.95;;;;;;;;;;4905855;29;20050;-76
2023/12/18 10:40:09;;;;;;;9.63;2.20;;;;;;;;;;4905308;29;20035;-75
2023/12/18 10:42:37;;;;;;;9.40;1.83;;;;;;;;;;4886432;29;20468;-74
2023/12/18 10:45:07;;;;;;;9.90;2.42;;;;;;;;;;4897756;29;20063;-76
2023/12/18 10:47:33;;;;;;;10.48;2.28;;;;;;;;;;4900636;29;20143;-76
2023/12/18 10:50:06;;;;;;;11.65;2.70;;;;;;;;;;4887354;29;20036;-76
2023/12/18 10:52:33;;;;;;;60.97;11.38;;;;;;;;;;4886813;29;20036;-75
2023/12/18 10:55:01;;;;;;;21.10;4.72;;;;;;;;;;4888070;29;20096;-75
2023/12/18 10:57:27;;;;;;;14.13;3.35;;;;;;;;;;4898241;29;20017;-75
2023/12/18 10:59:54;;;;;;;21.13;4.30;;;;;;;;;;4885915;29;20032;-74
2023/12/18 11:02:20;;;;;;;15.88;3.80;;;;;;;;;;4871181;29;20070;-74
2023/12/18 11:04:48;;;;;;;11.38;3.00;;;;;;;;;;4900692;29;20071;-74
2023/12/18 11:07:19;;;;;;;12.82;2.85;;;;;;;;;;4900057;29;20364;-77
2023/12/18 11:09:45;;;;;;;9.18;2.50;;;;;;;;;;4883872;29;20127;-76
2023/12/18 11:12:12;;;;;;;12.55;3.08;;;;;;;;;;4879574;29;20028;-74
2023/12/18 11:14:38;;;;;;;9.57;2.58;;;;;;;;;;4888569;29;20040;-75
2023/12/18 11:17:04;;;;;;;;;;;;;;;;;;4886813;29;20032;-74
2023/12/18 11:19:30;;;;;;;12.60;2.85;;;;;;;;;;4886195;29;19915;-75
2023/12/18 11:21:58;;;;;;;12.30;2.85;;;;;;;;;;4886637;29;20044;-75
2023/12/18 11:24:27;;;;;;;9.50;2.85;;;;;;;;;;4898169;29;20051;-77
2023/12/18 11:26:53;;;;;;;13.52;2.50;;;;;;;;;;4887827;29;20560;-75
2023/12/18 11:29:37;;;;;;;11.90;2.40;;;;;;;;;;4896533;29;20036;-75
2023/12/18 11:32:04;;;;;;;11.55;2.80;;;;;;;;;;4886407;29;20032;-75
2023/12/18 11:34:31;;;;;;;9.05;2.55;;;;;;;;;;4903610;29;20051;-76
2023/12/18 11:36:59;;;;;;;10.20;2.60;;;;;;;;;;4882817;29;20708;-74
2023/12/18 11:39:34;;;;;;;11.88;2.92;;;;;;;;;;4883912;29;20119;-75
2023/12/18 11:42:00;;;;;;;8.93;2.33;;;;;;;;;;4899967;29;20381;-75
2023/12/18 11:44:30;;;;;;;10.98;2.42;;;;;;;;;;4899883;29;20056;-77
2023/12/18 11:46:57;;;;;;;9.55;2.35;;;;;;;;;;4903841;29;20429;-74
2023/12/18 11:49:25;;;;;;;9.55;2.25;;;;;;;;;;4905193;29;20057;-74
2023/12/18 11:51:51;;;;;;;7.75;2.20;;;;;;;;;;4887617;29;20031;-75
2023/12/18 11:54:24;;;;;;;12.45;2.88;;;;;;;;;;4904997;29;21192;-75
2023/12/18 11:56:51;;;;;;;12.57;2.45;;;;;;;;;;4891001;29;20027;-75
2023/12/18 11:59:22;;;;;;;9.13;2.35;;;;;;;;;;4901241;29;20031;-76
2023/12/18 12:01:52;;;;;;;10.63;3.50;;;;;;;;;;4906403;29;20082;-76
2023/12/18 12:04:20;;;;;;;11.55;3.42;;;;;;;;;;4904048;29;20040;-77
2023/12/18 12:06:47;;;;;;;10.38;3.10;;;;;;;;;;4907904;29;20043;-75
2023/12/18 12:09:13;;;;;;;8.25;2.50;;;;;;;;;;4903614;29;20541;-75
2023/12/18 12:11:41;;;;;;;10.98;2.50;;;;;;;;;;4888397;29;20032;-75
2023/12/18 12:14:07;;;;;;;9.10;2.30;;;;;;;;;;4902468;29;20122;-75
2023/12/18 12:16:33;;;;;;;7.68;2.20;;;;;;;;;;4889072;29;20036;-75
2023/12/18 12:19:01;;;;;;;;;;;;;;;;;;4908593;29;20024;-76
2023/12/18 12:21:27;;;;;;;14.73;3.50;;;;;;;;;;4907780;29;19930;-75
2023/12/18 12:23:53;;;;;;;9.00;2.95;;;;;;;;;;4908301;29;20055;-75
2023/12/18 12:26:22;;;;;;;10.95;2.80;;;;;;;;;;4905695;29;20043;-75
2023/12/18 12:28:49;;;;;;;8.75;2.55;;;;;;;;;;4909252;29;20031;-75
2023/12/18 12:31:18;;;;;;;8.13;1.95;;;;;;;;;;4903731;29;20071;-75
2023/12/18 12:33:47;;;;;;;8.38;2.80;;;;;;;;;;4892977;29;20039;-75
2023/12/18 12:36:18;;;;;;;11.63;3.50;;;;;;;;;;4903107;29;20036;-75
2023/12/18 12:38:44;;;;;;;9.40;2.50;;;;;;;;;;4901480;29;20756;-75
2023/12/18 12:41:11;;;;;;;9.60;2.63;;;;;;;;;;4899302;29;20058;-75
2023/12/18 12:43:37;;;;;;;8.38;2.03;;;;;;;;;;4903713;29;20059;-75
2023/12/18 12:46:05;;;;;;;10.32;2.03;;;;;;;;;;4900996;29;20023;-75
2023/12/18 12:48:33;;;;;;;9.90;2.33;;;;;;;;;;4901162;29;20063;-75
2023/12/18 12:50:59;;;;;;;7.50;2.10;;;;;;;;;;4907731;29;20087;-75
2023/12/18 12:53:25;;;;;;;6.85;2.10;;;;;;;;;;4903886;29;20031;-75
2023/12/18 12:55:51;;;;;;;7.43;2.42;;;;;;;;;;4906553;29;20051;-76
2023/12/18 12:58:17;;;;;;;8.73;2.70;;;;;;;;;;4902034;29;20589;-76
2023/12/18 13:00:46;;;;;;;8.73;2.78;;;;;;;;;;4903018;29;20119;-76
2023/12/18 13:03:12;;;;;;;10.40;3.10;;;;;;;;;;4903238;29;20139;-76
2023/12/18 13:05:38;;;;;;;9.98;3.17;;;;;;;;;;4905936;29;20649;-76
2023/12/18 13:08:04;;;;;;;9.02;2.40;;;;;;;;;;4900450;29;20039;-76
2023/12/18 13:10:30;;;;;;;11.20;2.20;;;;;;;;;;4904435;29;20738;-75
2023/12/18 13:12:57;;;;;;;6.97;2.33;;;;;;;;;;4906087;29;20119;-75
2023/12/18 13:15:25;;;;;;;12.48;3.70;;;;;;;;;;4899937;29;20047;-76
2023/12/18 13:17:54;;;;;;;8.95;3.10;;;;;;;;;;4902446;29;20024;-75
2023/12/18 13:20:21;;;;;;;9.95;2.92;;;;;;;;;;4902189;29;20098;-75
2023/12/18 13:22:48;;;;;;;9.98;2.85;;;;;;;;;;4905604;29;20035;-75
2023/12/18 13:25:14;;;;;;;10.40;2.75;;;;;;;;;;4900917;29;20036;-75
2023/12/18 13:27:41;;;;;;;8.55;2.78;;;;;;;;;;4905385;29;20044;-75
2023/12/18 13:30:10;;;;;;;9.48;2.83;;;;;;;;;;4903833;29;20063;-75
2023/12/18 13:32:36;;;;;;;8.13;2.63;;;;;;;;;;4901604;29;20040;-75
2023/12/18 13:35:02;;;;;;;11.18;3.42;;;;;;;;;;4901086;29;20047;-76
2023/12/18 13:37:29;;;;;;;9.73;2.70;;;;;;;;;;4901607;29;20850;-74
2023/12/18 13:39:55;;;;;;;8.68;2.53;;;;;;;;;;4873591;29;20039;-76
2023/12/18 13:42:21;;;;;;;8.30;2.72;;;;;;;;;;4900179;29;20056;-75
2023/12/18 13:44:48;;;;;;;15.15;10.00;;;;;;;;;;4870492;29;20059;-75
2023/12/18 13:47:14;;;;;;;16.92;9.48;;;;;;;;;;4902959;29;20143;-76
2023/12/18 13:49:41;;;;;;;33.50;25.08;;;;;;;;;;4903161;29;20039;-76
2023/12/18 13:52:07;;;;;;;15.57;9.77;;;;;;;;;;4899361;29;20139;-74
2023/12/18 13:54:33;;;;;;;12.32;4.50;;;;;;;;;;4905695;29;20031;-75
2023/12/18 13:57:00;;;;;;;13.00;5.20;;;;;;;;;;4904571;29;20048;-75
2023/12/18 13:59:26;;;;;;;10.25;4.18;;;;;;;;;;4902581;29;20028;-75
2023/12/18 14:01:52;;;;;;;12.40;5.03;;;;;;;;;;4901549;29;20063;-75
2023/12/18 14:04:19;;;;;;;11.57;3.85;;;;;;;;;;4881822;29;20115;-75
2023/12/18 14:06:46;;;;;;;12.15;5.25;;;;;;;;;;4903684;29;20082;-75
2023/12/18 14:09:12;;;;;;;11.85;4.88;;;;;;;;;;4905040;29;20059;-74
2023/12/18 14:11:39;;;;;;;10.25;4.15;;;;;;;;;;4908246;29;20313;-74
2023/12/18 14:14:05;;;;;;;10.07;2.83;;;;;;;;;;4903079;29;20597;-74
2023/12/18 14:16:32;;;;;;;8.70;2.10;;;;;;;;;;4904192;29;20055;-75
2023/12/18 14:18:58;;;;;;;7.78;2.30;;;;;;;;;;4905949;29;20032;-76
2023/12/18 14:21:25;;;;;;;11.80;4.63;;;;;;;;;;4906763;29;20035;-75
2023/12/18 14:23:51;;;;;;;8.50;3.95;;;;;;;;;;4907735;29;20044;-75
2023/12/18 14:26:18;;;;;;;14.52;5.50;;;;;;;;;;4902794;29;20043;-74
2023/12/18 14:28:44;;;;;;;17.30;9.57;;;;;;;;;;4906056;29;20028;-75
2023/12/18 14:31:16;;;;;;;17.67;5.25;;;;;;;;;;4902532;29;20130;-74
2023/12/18 14:33:42;;;;;;;9.90;2.70;;;;;;;;;;4906687;29;20055;-74